Time;durP1;ratioP1;P1;durP2;ratioP2;P2;SDS_P1;SDS_P2;PMS_P1;PMS_P2;Temp;Humidity;BMP_temperature;BMP_pressure;BME280_temperature;BME280_humidity;BME280_pressure;Samples;Min_cycle;Max_cycle;Signal;HPM_P1;HPM_P2
2021/09/29 00:02:12;;;;;;;7.32;3.72;;;;;;;10.19;86.67;91017.84;5029750;28;20086;-89
2021/09/29 00:04:37;;;;;;;6.18;3.65;;;;;;;10.08;86.74;91016.75;5035405;28;20036;-88
2021/09/29 00:07:03;;;;;;;7.55;3.78;;;;;;;10.19;86.61;91015.25;5044598;28;20035;-90
2021/09/29 00:09:28;;;;;;;6.80;4.43;;;;;;;10.05;87.52;91018.88;5055909;28;20025;-90
2021/09/29 00:11:54;;;;;;;7.88;4.25;;;;;;;10.15;86.96;91011.75;5046910;28;20028;-90
2021/09/29 00:14:19;;;;;;;7.20;3.85;;;;;;;10.13;86.83;91012.06;5055445;28;20044;-90
2021/09/29 00:16:45;;;;;;;8.07;3.80;;;;;;;10.02;87.08;91023.97;5039628;28;20029;-89
2021/09/29 00:19:10;;;;;;;6.95;3.38;;;;;;;9.92;87.22;91032.94;5036527;28;20479;-89
2021/09/29 00:21:36;;;;;;;4.30;3.25;;;;;;;9.90;87.47;91031.75;5032966;28;20028;-90
2021/09/29 00:24:01;;;;;;;9.82;4.00;;;;;;;9.77;88.06;91017.94;5019274;28;20021;-90
2021/09/29 00:26:26;;;;;;;9.63;4.10;;;;;;;9.77;88.36;91030.94;5035338;28;20032;-90
2021/09/29 00:28:52;;;;;;;7.38;4.38;;;;;;;9.74;88.65;91027.13;5019547;28;20025;-90
2021/09/29 00:33:58;;;;;;;9.25;4.70;;;;;;;9.94;88.22;91033.41;5052643;28;20039;-89
2021/09/29 00:36:25;;;;;;;6.35;3.65;;;;;;;9.93;88.06;91021.47;5056788;28;20119;-90
2021/09/29 00:38:50;;;;;;;11.32;5.03;;;;;;;10.01;86.37;91025.81;5055292;28;20032;-90
2021/09/29 00:41:15;;;;;;;8.15;4.93;;;;;;;9.95;87.54;91019.28;5051659;28;20033;-90
2021/09/29 00:43:41;;;;;;;10.25;4.30;;;;;;;10.07;86.99;91029.00;5018881;28;20048;-90
2021/09/29 00:46:06;;;;;;;6.13;3.60;;;;;;;9.90;87.36;91019.50;5035418;28;20501;-90
2021/09/29 00:48:31;;;;;;;8.20;4.07;;;;;;;10.08;86.68;91030.50;5052650;28;20032;-90
2021/09/29 00:50:57;;;;;;;5.35;3.78;;;;;;;10.02;86.61;91018.78;5019239;28;20055;-89
2021/09/29 00:53:22;;;;;;;6.20;3.67;;;;;;;10.05;86.64;91024.09;5052060;28;20096;-88
2021/09/29 00:55:48;;;;;;;6.78;3.97;;;;;;;10.19;85.63;91025.66;5035871;28;20037;-90
2021/09/29 00:58:13;;;;;;;6.40;4.38;;;;;;;10.34;84.30;91019.84;5052322;28;20029;-90
2021/09/29 01:00:39;;;;;;;6.85;4.18;;;;;;;10.30;82.77;91021.59;5036257;28;20032;-89
2021/09/29 01:03:04;;;;;;;6.50;3.92;;;;;;;10.38;81.52;91020.72;5053321;28;20024;-90
2021/09/29 01:05:29;;;;;;;7.15;3.50;;;;;;;10.32;81.71;91016.03;5028116;28;20036;-90
2021/09/29 01:08:01;;;;;;;10.40;3.72;;;;;;;10.36;80.89;91019.53;5054639;28;20481;-90
2021/09/29 01:10:31;;;;;;;8.25;3.20;;;;;;;10.44;79.13;91023.88;5049117;28;20028;-89
2021/09/29 01:13:02;;;;;;;4.82;2.78;;;;;;;10.38;78.04;91020.72;5062105;28;20109;-88
2021/09/29 01:15:29;;;;;;;5.82;2.53;;;;;;;10.36;77.26;91030.72;5070337;28;20074;-89
2021/09/29 01:17:58;;;;;;;10.77;3.20;;;;;;;10.26;76.46;91033.75;5054640;28;20051;-90
2021/09/29 01:20:28;;;;;;;5.43;2.22;;;;;;;10.18;76.41;91034.56;5038326;28;20115;-89
2021/09/29 01:23:35;;;;;;;6.47;2.60;;;;;;;10.24;76.48;91035.88;5065130;28;20036;-90
2021/09/29 01:26:10;;;;;;;4.65;1.90;;;;;;;10.18;77.20;91037.94;5014974;28;20033;-89
2021/09/29 01:28:37;;;;;;;;;;;;;;;10.11;76.34;91032.47;5046561;28;20029;-90
2021/09/29 01:31:02;;;;;;;5.88;2.10;;;;;;;10.04;77.03;91029.63;5071714;28;20315;-90
2021/09/29 01:33:29;;;;;;;3.90;1.83;;;;;;;10.10;75.33;91036.16;5050446;28;20025;-90
2021/09/29 01:35:54;;;;;;;2.80;1.55;;;;;;;10.08;75.69;91037.56;5021690;28;20055;-90
2021/09/29 01:38:20;;;;;;;2.75;1.50;;;;;;;10.02;73.62;91045.56;5049102;28;20490;-89
2021/09/29 01:40:45;;;;;;;3.35;1.40;;;;;;;9.95;73.08;91053.13;5038398;28;20025;-90
2021/09/29 01:43:11;;;;;;;3.65;1.33;;;;;;;9.82;74.38;91036.72;5047648;28;20037;-89
2021/09/29 01:45:37;;;;;;;5.53;1.65;;;;;;;9.84;72.78;91038.25;5034281;28;20520;-90
2021/09/29 01:48:03;;;;;;;2.70;1.33;;;;;;;9.80;73.89;91046.69;5023527;28;20111;-90
2021/09/29 01:50:29;;;;;;;4.15;1.45;;;;;;;9.70;71.95;91041.09;5054848;28;20026;-90
2021/09/29 01:52:56;;;;;;;3.28;1.27;;;;;;;9.53;73.41;91040.16;5032830;28;20483;-90
2021/09/29 01:55:22;;;;;;;3.53;1.10;;;;;;;9.41;72.32;91027.09;5040724;28;20074;-89
2021/09/29 01:57:47;;;;;;;4.30;1.20;;;;;;;9.39;72.98;91038.88;5036020;28;20470;-89
2021/09/29 02:00:13;;;;;;;5.10;1.00;;;;;;;9.37;73.74;91036.63;5037664;28;20021;-90
2021/09/29 02:02:40;;;;;;;3.95;1.08;;;;;;;9.42;71.77;91027.84;5034738;28;20028;-89
2021/09/29 02:05:05;;;;;;;2.92;1.10;;;;;;;9.27;72.74;91029.19;5034080;28;20025;-90
2021/09/29 02:07:31;;;;;;;3.17;1.25;;;;;;;9.34;72.45;91021.66;5018092;28;20085;-90
2021/09/29 02:09:56;;;;;;;3.28;0.95;;;;;;;9.27;72.85;91021.38;5034085;28;20532;-89
2021/09/29 02:12:22;;;;;;;3.17;1.00;;;;;;;9.30;72.75;91021.50;5034440;28;20025;-89
2021/09/29 02:14:47;;;;;;;5.25;1.13;;;;;;;9.21;72.05;91018.19;5017291;28;20028;-90
2021/09/29 02:17:12;;;;;;;3.47;0.95;;;;;;;9.23;73.30;91036.09;5017487;28;20074;-89
2021/09/29 02:19:38;;;;;;;3.53;1.20;;;;;;;9.24;72.44;91027.22;5059810;28;20088;-88
2021/09/29 02:22:03;;;;;;;2.72;0.88;;;;;;;9.32;72.05;91039.38;5017411;28;20474;-90
2021/09/29 02:24:29;;;;;;;3.40;1.20;;;;;;;9.14;73.19;91027.59;5032943;28;20044;-90
2021/09/29 02:26:54;;;;;;;2.08;0.90;;;;;;;9.08;73.81;91034.78;5032656;28;20021;-89
2021/09/29 02:29:20;;;;;;;5.30;1.40;;;;;;;9.00;73.74;91036.38;5034374;28;20032;-89
2021/09/29 02:31:45;;;;;;;5.45;0.90;;;;;;;9.08;73.35;91032.19;5053471;28;20477;-90
2021/09/29 02:34:10;;;;;;;2.85;0.77;;;;;;;9.01;73.45;91022.31;5049540;28;20100;-90
2021/09/29 02:36:36;;;;;;;4.00;0.88;;;;;;;9.14;73.24;91025.75;5017498;28;20025;-90
2021/09/29 02:39:03;;;;;;;4.90;2.22;;;;;;;8.94;73.77;91037.66;5034187;28;20444;-90
2021/09/29 02:41:28;;;;;;;2.88;0.80;;;;;;;8.94;74.47;91029.84;5017637;28;20021;-89
2021/09/29 02:43:53;;;;;;;2.85;1.10;;;;;;;8.98;73.68;91025.53;5046445;28;20087;-90
2021/09/29 02:46:19;;;;;;;3.72;0.95;;;;;;;8.94;73.92;91040.25;5050759;28;20029;-89
2021/09/29 02:48:44;;;;;;;2.63;0.70;;;;;;;8.94;74.27;91049.84;5045756;28;20024;-90
2021/09/29 02:51:10;;;;;;;3.17;1.00;;;;;;;8.80;74.79;91050.09;5033695;28;20021;-89
2021/09/29 02:53:35;;;;;;;3.55;0.70;;;;;;;8.77;75.16;91048.88;5039930;28;20024;-90
2021/09/29 02:56:01;;;;;;;4.28;0.82;;;;;;;8.85;74.06;91047.31;5053866;28;20028;-90
2021/09/29 02:58:27;;;;;;;2.53;0.80;;;;;;;8.98;73.47;91054.13;5029274;28;20375;-90
2021/09/29 03:00:53;;;;;;;4.07;1.02;;;;;;;8.87;74.35;91058.16;5017002;28;20020;-90
2021/09/29 03:03:19;;;;;;;5.45;1.00;;;;;;;8.95;75.10;91056.59;5033871;28;20108;-89
2021/09/29 03:05:45;;;;;;;2.17;1.15;;;;;;;8.81;75.24;91054.22;5033542;28;20064;-89
2021/09/29 03:08:10;;;;;;;2.17;0.80;;;;;;;8.96;74.21;91064.06;5017338;28;20037;-89
2021/09/29 03:10:38;;;;;;;3.15;0.80;;;;;;;8.95;75.06;91062.56;5092658;23;20137;-87
2021/09/29 03:13:04;;;;;;;6.00;0.98;;;;;;;9.08;73.60;91061.56;5041204;28;20045;-87
2021/09/29 03:15:29;;;;;;;7.20;1.08;;;;;;;9.05;74.77;91071.84;5017612;28;20036;-87
2021/09/29 03:17:55;;;;;;;2.75;0.85;;;;;;;9.00;74.42;91070.16;5033723;28;20402;-87
2021/09/29 03:20:20;;;;;;;2.30;0.63;;;;;;;9.00;75.02;91069.41;5033049;28;20401;-86
2021/09/29 03:22:45;;;;;;;6.45;0.93;;;;;;;9.05;74.16;91057.00;5000806;28;20075;-88
2021/09/29 03:25:11;;;;;;;8.85;0.90;;;;;;;8.92;74.53;91065.78;4987881;28;20396;-86
2021/09/29 03:27:36;;;;;;;4.72;0.90;;;;;;;8.95;74.97;91069.59;5017015;28;20032;-85
2021/09/29 03:30:02;;;;;;;2.63;0.90;;;;;;;8.97;75.60;91075.22;5000673;28;20371;-87
2021/09/29 03:32:27;;;;;;;5.47;0.90;;;;;;;8.92;75.69;91078.78;5017245;28;20021;-86
2021/09/29 03:34:53;;;;;;;1.33;1.00;;;;;;;8.86;75.91;91067.03;4999816;28;20029;-86
2021/09/29 03:37:18;;;;;;;1.85;0.65;;;;;;;8.93;75.64;91071.75;5000678;28;20047;-87
2021/09/29 03:39:43;;;;;;;4.47;0.98;;;;;;;8.98;75.60;91067.13;4989874;28;20557;-86
2021/09/29 03:42:09;;;;;;;3.85;1.00;;;;;;;8.98;75.62;91067.13;5000885;28;20075;-87
2021/09/29 03:44:34;;;;;;;3.13;0.77;;;;;;;8.96;75.37;91073.72;4995057;28;20025;-87
2021/09/29 03:47:00;;;;;;;3.70;0.90;;;;;;;8.92;75.74;91068.38;5020640;28;20025;-87
2021/09/29 03:49:25;;;;;;;4.15;1.13;;;;;;;8.98;75.43;91079.38;5017175;28;20030;-87
2021/09/29 03:51:50;;;;;;;6.50;1.05;;;;;;;8.89;76.09;91069.00;5017133;28;20391;-86
2021/09/29 03:54:16;;;;;;;2.13;0.70;;;;;;;8.87;75.77;91073.78;5024787;28;20035;-87
2021/09/29 03:56:41;;;;;;;4.32;0.90;;;;;;;8.84;76.05;91077.75;5004207;28;20044;-87
2021/09/29 03:59:07;;;;;;;4.40;1.10;;;;;;;8.82;76.28;91071.31;5019468;28;20505;-87
2021/09/29 04:01:32;;;;;;;5.72;1.05;;;;;;;8.86;75.25;91069.63;5029018;28;20039;-89
2021/09/29 04:03:57;;;;;;;4.22;0.82;;;;;;;8.92;75.43;91078.78;5045130;28;20033;-88
2021/09/29 04:06:23;;;;;;;2.67;0.90;;;;;;;8.92;75.66;91073.56;5021114;28;20071;-87
2021/09/29 04:08:48;;;;;;;4.68;0.75;;;;;;;8.76;76.17;91069.97;5037577;28;20098;-87
2021/09/29 04:11:14;;;;;;;4.43;1.20;;;;;;;8.77;76.79;91085.25;5036325;28;20499;-87
2021/09/29 04:13:39;;;;;;;3.55;0.90;;;;;;;8.69;76.95;91074.88;5040528;28;20051;-85
2021/09/29 04:16:05;;;;;;;4.57;0.82;;;;;;;8.64;77.33;91082.88;5004375;28;20524;-87
2021/09/29 04:18:30;;;;;;;3.30;0.90;;;;;;;8.75;76.85;91078.84;5019385;28;20016;-86
2021/09/29 04:20:56;;;;;;;4.05;0.80;;;;;;;8.80;76.64;91086.47;5019549;28;20025;-87
2021/09/29 04:23:21;;;;;;;5.10;0.98;;;;;;;8.63;77.32;91089.91;5019570;28;20037;-87
2021/09/29 04:25:51;;;;;;;4.72;0.80;;;;;;;8.80;76.49;91082.03;5018165;28;20037;-87
2021/09/29 04:28:17;;;;;;;3.22;1.13;;;;;;;8.75;76.46;91089.25;5032845;28;20029;-86
2021/09/29 04:30:42;;;;;;;2.75;0.70;;;;;;;8.71;76.86;91085.75;5017306;28;20033;-87
2021/09/29 04:33:07;;;;;;;4.72;1.00;;;;;;;8.75;76.51;91089.25;5003192;28;20029;-86
2021/09/29 04:35:33;;;;;;;1.40;0.77;;;;;;;8.66;76.78;91101.50;5003613;28;20029;-87
2021/09/29 04:37:58;;;;;;;2.13;1.17;;;;;;;8.63;77.76;91091.75;4983398;28;20028;-87
2021/09/29 04:40:24;;;;;;;2.35;0.70;;;;;;;8.59;77.66;91091.59;5013579;28;20029;-87
2021/09/29 04:42:49;;;;;;;4.82;0.90;;;;;;;8.58;77.89;91093.41;5019344;28;20556;-87
2021/09/29 04:45:15;;;;;;;3.25;0.82;;;;;;;8.42;78.62;91097.59;5017338;28;20063;-88
2021/09/29 04:47:40;;;;;;;3.55;1.05;;;;;;;8.49;78.23;91108.28;5015600;28;20025;-86
2021/09/29 04:50:06;;;;;;;5.82;0.90;;;;;;;8.57;78.06;91115.28;5018773;28;20052;-87
2021/09/29 04:52:32;;;;;;;5.93;0.70;;;;;;;8.43;78.74;91113.94;5035697;28;20391;-87
2021/09/29 04:54:57;;;;;;;4.53;1.00;;;;;;;8.53;78.71;91113.63;5018782;28;20513;-86
2021/09/29 04:57:22;;;;;;;2.67;0.70;;;;;;;8.59;77.75;91115.75;5019368;28;20021;-87
2021/09/29 04:59:48;;;;;;;2.88;1.17;;;;;;;8.43;79.60;91114.69;5036370;28;20067;-86
2021/09/29 05:02:13;;;;;;;2.00;0.80;;;;;;;8.48;78.22;91106.75;4983296;28;20025;-87
2021/09/29 05:04:39;;;;;;;5.25;0.90;;;;;;;8.57;77.93;91110.09;5026682;28;20040;-88
2021/09/29 05:07:04;;;;;;;2.47;0.80;;;;;;;8.64;78.38;91106.25;5041830;28;20033;-87
2021/09/29 05:09:30;;;;;;;2.75;0.85;;;;;;;8.56;78.90;91113.75;5027313;28;20152;-87
2021/09/29 05:12:12;;;;;;;5.35;0.90;;;;;;;8.81;77.17;91111.38;5037952;28;20033;-86
2021/09/29 05:14:37;;;;;;;3.67;1.00;;;;;;;8.70;77.69;91113.56;5019404;28;20024;-84
2021/09/29 05:17:03;;;;;;;3.45;1.02;;;;;;;8.74;77.91;91117.06;5002355;28;20032;-87
2021/09/29 05:19:28;;;;;;;6.35;0.90;;;;;;;8.68;78.38;91114.94;5018857;28;20025;-86
2021/09/29 05:21:54;;;;;;;4.35;1.00;;;;;;;8.48;79.29;91111.97;5013946;28;20034;-87
2021/09/29 05:24:20;;;;;;;4.22;0.80;;;;;;;8.46;79.23;91119.28;5014838;28;20491;-87
2021/09/29 05:26:45;;;;;;;3.67;0.82;;;;;;;8.45;79.35;91115.16;5007005;28;20032;-86
2021/09/29 05:29:11;;;;;;;4.72;0.80;;;;;;;8.41;79.87;91116.88;5001981;28;20025;-86
2021/09/29 05:31:36;;;;;;;3.22;0.80;;;;;;;8.49;79.62;91126.47;5017384;28;20021;-85
2021/09/29 05:34:02;;;;;;;5.45;1.20;;;;;;;8.65;77.64;91121.50;5001616;28;20036;-87
2021/09/29 05:36:27;;;;;;;3.50;0.77;;;;;;;8.61;78.92;91120.63;5017805;28;20016;-87
2021/09/29 05:38:53;;;;;;;3.13;0.82;;;;;;;8.51;79.75;91126.91;5001850;28;20023;-86
2021/09/29 05:41:18;;;;;;;2.15;0.70;;;;;;;8.46;80.26;91123.72;5017847;28;20086;-86
2021/09/29 05:43:43;;;;;;;4.65;0.82;;;;;;;8.44;80.18;91131.81;5018035;28;20029;-87
2021/09/29 05:46:09;;;;;;;3.58;0.90;;;;;;;8.49;80.65;91138.69;5000402;28;20040;-86
2021/09/29 05:48:34;;;;;;;6.72;1.17;;;;;;;8.46;80.98;91134.88;5034777;28;20029;-87
2021/09/29 05:51:00;;;;;;;5.20;0.90;;;;;;;8.50;80.67;91138.38;5031095;28;20495;-86
2021/09/29 05:53:25;;;;;;;3.50;0.80;;;;;;;8.51;80.63;91126.13;5031148;28;20387;-86
2021/09/29 05:55:51;;;;;;;3.75;0.90;;;;;;;8.59;80.54;91133.16;5025597;28;20039;-87
2021/09/29 05:58:16;;;;;;;7.43;1.00;;;;;;;8.59;81.15;91133.94;5002029;28;20025;-87
2021/09/29 06:00:41;;;;;;;1.77;0.80;;;;;;;8.67;80.78;91140.16;5009848;28;20084;-86
2021/09/29 06:03:07;;;;;;;4.40;0.90;;;;;;;8.65;80.67;91128.56;4982046;28;20079;-87
2021/09/29 06:05:32;;;;;;;3.25;0.85;;;;;;;8.74;80.99;91137.84;4981898;28;20021;-87
2021/09/29 06:07:58;;;;;;;4.70;0.90;;;;;;;8.75;81.14;91136.78;4982601;28;20211;-87
2021/09/29 06:10:23;;;;;;;3.90;1.13;;;;;;;8.81;80.70;91129.59;5017668;28;20783;-87
2021/09/29 06:12:49;;;;;;;5.10;1.10;;;;;;;9.03;79.35;91137.13;5034077;28;20423;-87
2021/09/29 06:15:24;;;;;;;5.65;1.00;;;;;;;9.07;78.81;91132.81;5025972;28;20036;-87
2021/09/29 06:18:00;;;;;;;4.53;0.95;;;;;;;9.18;78.41;91128.03;5021213;28;20036;-87
2021/09/29 06:20:27;;;;;;;9.23;1.20;;;;;;;9.13;79.14;91130.81;5002495;28;20421;-88
2021/09/29 06:22:52;;;;;;;3.13;1.17;;;;;;;9.23;78.77;91129.72;5018694;28;20032;-87
2021/09/29 06:25:20;;;;;;;5.28;1.58;;;;;;;9.40;77.97;91136.66;5000887;28;20017;-87
2021/09/29 06:27:45;;;;;;;4.35;1.30;;;;;;;9.58;77.33;91135.50;5029696;28;20479;-85
2021/09/29 06:30:11;;;;;;;4.75;1.20;;;;;;;9.56;76.59;91141.00;5015975;28;20040;-87
2021/09/29 06:32:36;;;;;;;3.85;1.10;;;;;;;9.49;77.16;91140.72;4998261;28;20068;-87
2021/09/29 06:35:02;;;;;;;3.58;1.30;;;;;;;9.54;76.72;91145.75;4997878;28;20045;-87
2021/09/29 06:37:27;;;;;;;4.47;1.25;;;;;;;9.53;75.98;91152.03;4998179;28;20049;-87
2021/09/29 06:39:52;;;;;;;5.40;1.20;;;;;;;9.57;75.90;91146.94;4995551;28;20571;-86
2021/09/29 06:42:18;;;;;;;5.68;1.23;;;;;;;9.52;75.97;91158.31;5001504;28;20074;-86
2021/09/29 06:44:43;;;;;;;2.28;1.10;;;;;;;9.58;76.21;91154.47;5013905;28;20021;-86
2021/09/29 06:47:09;;;;;;;2.85;1.08;;;;;;;9.57;75.74;91147.72;5009178;28;20033;-87
2021/09/29 06:49:34;;;;;;;3.40;1.00;;;;;;;9.62;75.86;91148.63;5017268;28;20025;-87
2021/09/29 06:52:00;;;;;;;3.10;1.00;;;;;;;9.69;76.52;91141.09;5016706;28;20393;-87
2021/09/29 06:54:25;;;;;;;1.88;0.98;;;;;;;9.64;76.18;91156.88;5017346;28;20025;-86
2021/09/29 06:56:50;;;;;;;5.75;1.00;;;;;;;9.63;77.54;91153.50;5017267;28;20024;-87
2021/09/29 06:59:16;;;;;;;3.05;1.20;;;;;;;9.75;76.28;91158.81;5038768;28;20037;-87
2021/09/29 07:01:41;;;;;;;5.95;1.10;;;;;;;9.95;75.74;91165.09;5038943;28;20021;-87
2021/09/29 07:04:07;;;;;;;5.85;1.10;;;;;;;9.94;75.34;91168.78;5016984;28;20029;-86
2021/09/29 07:06:32;;;;;;;4.20;1.13;;;;;;;9.97;75.40;91175.19;5017091;28;20029;-87
2021/09/29 07:08:57;;;;;;;5.50;1.15;;;;;;;10.08;75.16;91168.53;5017339;28;20025;-87
2021/09/29 07:11:23;;;;;;;4.40;0.95;;;;;;;10.10;75.60;91176.75;5013203;28;20025;-87
2021/09/29 07:13:48;;;;;;;4.53;1.08;;;;;;;10.16;74.88;91169.53;5030646;28;20044;-87
2021/09/29 07:16:14;;;;;;;8.27;1.23;;;;;;;10.14;74.86;91166.47;5034300;28;20100;-87
2021/09/29 07:18:40;;;;;;;4.25;1.08;;;;;;;10.26;74.22;91163.97;5037225;28;20017;-86
2021/09/29 07:21:06;;;;;;;4.57;1.48;;;;;;;10.50;74.00;91171.88;5035452;28;20063;-86
2021/09/29 07:23:31;;;;;;;4.57;1.00;;;;;;;10.40;72.33;91164.47;5004249;28;20028;-87
2021/09/29 07:25:57;;;;;;;3.45;1.02;;;;;;;10.48;71.96;91166.22;5019965;28;20033;-86
2021/09/29 07:28:22;;;;;;;3.53;1.13;;;;;;;10.45;71.98;91172.06;5017344;28;20032;-87
2021/09/29 07:30:48;;;;;;;4.80;1.17;;;;;;;10.32;73.36;91173.13;5020065;28;20449;-88
2021/09/29 07:33:14;;;;;;;5.78;1.27;;;;;;;10.31;72.35;91170.81;5028451;28;20024;-89
2021/09/29 07:35:41;;;;;;;5.60;1.70;;;;;;;10.26;72.84;91182.19;5016057;28;20029;-87
2021/09/29 07:38:06;;;;;;;4.55;0.90;;;;;;;10.29;72.25;91181.56;5021369;28;20025;-86
2021/09/29 07:40:32;;;;;;;5.70;0.88;;;;;;;10.25;72.15;91184.03;5021083;28;20044;-87
2021/09/29 07:42:57;;;;;;;2.92;0.90;;;;;;;10.32;71.99;91172.34;5038654;28;20040;-87
2021/09/29 07:45:23;;;;;;;5.07;0.75;;;;;;;10.24;70.35;91171.28;5022057;28;20233;-87
2021/09/29 07:47:49;;;;;;;6.30;1.02;;;;;;;10.25;70.49;91183.25;5020361;28;20505;-87
2021/09/29 07:50:16;;;;;;;7.85;1.08;;;;;;;10.24;71.11;91182.47;5021144;28;20564;-87
2021/09/29 07:52:41;;;;;;;6.07;0.80;;;;;;;10.23;70.99;91165.31;5037834;28;20067;-87
2021/09/29 07:55:08;;;;;;;5.20;0.98;;;;;;;10.35;72.03;91169.84;5016087;28;20025;-86
2021/09/29 07:57:33;;;;;;;4.68;1.10;;;;;;;10.41;70.93;91171.19;5061441;28;20047;-88
2021/09/29 07:59:59;;;;;;;3.67;1.45;;;;;;;10.41;70.91;91173.03;5040967;28;20033;-88
2021/09/29 08:02:26;;;;;;;2.42;0.85;;;;;;;10.48;70.95;91171.44;5023874;28;20033;-88
2021/09/29 08:04:51;;;;;;;5.63;0.85;;;;;;;10.55;70.76;91164.94;5003512;28;20513;-87
2021/09/29 08:07:17;;;;;;;4.32;1.02;;;;;;;10.75;70.55;91169.34;5000918;28;20029;-87
2021/09/29 08:09:42;;;;;;;6.75;0.90;;;;;;;10.49;70.00;91170.38;5022569;28;20021;-87
2021/09/29 08:12:08;;;;;;;2.95;0.77;;;;;;;10.64;70.20;91163.03;5006143;28;20061;-87
2021/09/29 08:14:39;;;;;;;4.03;1.00;;;;;;;10.65;69.42;91160.09;5027126;28;20098;-87
2021/09/29 08:17:04;;;;;;;6.50;0.90;;;;;;;10.74;68.54;91157.38;5036963;28;20045;-87
2021/09/29 08:19:30;;;;;;;3.70;0.77;;;;;;;10.77;68.28;91162.72;5020212;28;20029;-87
2021/09/29 08:21:55;;;;;;;5.20;0.90;;;;;;;11.03;70.39;91163.56;5020409;28;20391;-88
2021/09/29 08:24:26;;;;;;;3.75;0.70;;;;;;;11.27;67.77;91168.00;5028917;28;20031;-89
2021/09/29 08:27:02;;;;;;;5.60;0.70;;;;;;;11.67;66.32;91186.41;5076201;28;20108;-89
2021/09/29 08:32:19;;;;;;;5.30;0.90;;;;;;;11.40;67.41;91177.38;5022969;28;20471;-87
2021/09/29 08:42:23;;;;;;;5.78;1.10;;;;;;;11.38;67.50;91182.94;5020916;28;20063;-88
2021/09/29 08:44:58;;;;;;;5.47;0.95;;;;;;;11.41;66.79;91190.09;5036415;28;20505;-88
2021/09/29 08:47:27;;;;;;;3.88;0.77;;;;;;;10.99;66.63;91185.06;5020693;28;20021;-88
2021/09/29 09:16:58;;;;;;;4.80;0.90;;;;;;;11.46;65.27;91182.06;5033168;28;20040;-91
2021/09/29 09:19:29;;;;;;;9.73;1.17;;;;;;;11.64;65.15;91179.22;5008107;28;20029;-92
2021/09/29 09:21:59;;;;;;;2.90;0.63;;;;;;;11.68;64.01;91177.47;5019417;28;20063;-91
2021/09/29 09:24:36;;;;;;;10.00;1.17;;;;;;;11.54;65.54;91171.84;5018934;28;20033;-92
2021/09/29 09:27:06;;;;;;;6.43;0.90;;;;;;;11.70;65.59;91180.53;5020896;28;20036;-92
2021/09/29 09:29:45;;;;;;;32.03;12.20;;;;;;;11.49;64.90;91180.66;5038206;28;20021;-91
2021/09/29 09:32:12;;;;;;;5.38;0.85;;;;;;;11.77;65.02;91170.31;5029880;28;20025;-93
2021/09/29 09:34:37;;;;;;;9.02;0.90;;;;;;;12.00;65.05;91162.78;5027457;28;20040;-91
2021/09/29 09:37:06;;;;;;;10.32;1.10;;;;;;;12.04;64.58;91184.53;5027917;28;20016;-92
2021/09/29 09:39:32;;;;;;;6.07;1.67;;;;;;;11.90;64.06;91171.81;5034130;28;20072;-93
2021/09/29 09:41:58;;;;;;;5.68;0.88;;;;;;;12.08;64.32;91174.19;5014962;28;20082;-90
2021/09/29 09:44:27;;;;;;;3.83;0.93;;;;;;;12.22;64.78;91182.41;5003967;28;20482;-92
2021/09/29 09:47:14;;;;;;;2.38;0.80;;;;;;;12.31;63.71;91177.81;5036015;28;20020;-92
2021/09/29 09:49:47;;;;;;;3.40;0.57;;;;;;;12.32;63.99;91176.72;5003187;28;20036;-91
2021/09/29 09:52:13;;;;;;;4.43;0.82;;;;;;;12.28;63.80;91170.66;5019089;28;20032;-92
2021/09/29 09:54:40;;;;;;;3.75;0.80;;;;;;;12.20;63.05;91180.16;5018128;28;20036;-91
2021/09/29 09:57:19;;;;;;;4.75;0.88;;;;;;;12.51;63.36;91191.03;5018890;28;20383;-92
2021/09/29 09:59:49;;;;;;;3.53;0.75;;;;;;;12.43;62.54;91183.00;5019028;28;20032;-90
2021/09/29 10:02:14;;;;;;;5.47;0.82;;;;;;;12.52;62.95;91176.91;5019036;28;20028;-91
2021/09/29 10:04:40;;;;;;;6.03;0.90;;;;;;;12.41;62.49;91177.38;5018636;28;20400;-91
2021/09/29 10:07:07;;;;;;;4.32;0.68;;;;;;;12.27;63.67;91179.59;5002294;28;20372;-91
2021/09/29 10:09:43;;;;;;;4.45;0.90;;;;;;;12.08;63.31;91195.06;5002454;28;20029;-92
2021/09/29 10:23:08;;;;;;;3.67;0.80;;;;;;;11.89;64.37;91190.44;5014053;28;20065;-91
2021/09/29 10:28:19;;;;;;;3.75;0.77;;;;;;;12.02;63.24;91180.75;4999531;28;20068;-91
2021/09/29 10:31:25;;;;;;;5.80;1.05;;;;;;;11.82;64.57;91180.50;4997047;28;20022;-91
2021/09/29 10:34:06;;;;;;;5.43;0.63;;;;;;;12.03;63.77;91177.78;5003703;28;20063;-91
2021/09/29 10:42:20;;;;;;;3.83;0.70;;;;;;;11.90;64.49;91174.44;5001989;28;20029;-91
2021/09/29 10:45:00;;;;;;;5.00;0.60;;;;;;;12.07;63.23;91173.41;4999631;28;20030;-91
2021/09/29 10:52:48;;;;;;;6.07;0.80;;;;;;;12.35;64.07;91165.63;5017015;28;20017;-90
2021/09/29 11:09:53;;;;;;;2.95;0.65;;;;;;;12.76;62.29;91163.72;4959949;28;20040;-91
2021/09/29 11:31:38;;;;;;;5.00;0.80;;;;;;;12.56;63.75;91152.34;5014736;28;20290;-92
2021/09/29 11:34:13;;;;;;;6.05;1.58;;;;;;;12.74;63.92;91152.81;4983800;28;20030;-91
2021/09/29 12:12:21;;;;;;;3.60;0.60;;;;;;;13.17;63.19;91132.94;5017390;28;20041;-91
2021/09/29 12:14:59;;;;;;;3.33;0.77;;;;;;;12.75;62.38;91138.66;5017672;28;20027;-89
2021/09/29 12:17:36;;;;;;;5.75;0.70;;;;;;;12.96;63.61;91127.97;5052423;28;20037;-91
2021/09/29 12:22:52;;;;;;;5.57;1.00;;;;;;;12.93;62.43;91133.84;5039221;28;20040;-91
2021/09/29 12:30:49;;;;;;;3.88;0.70;;;;;;;12.70;62.43;91125.81;5038933;28;20040;-91
2021/09/29 12:33:33;;;;;;;4.68;0.68;;;;;;;12.65;63.11;91126.09;5005560;28;20021;-93
2021/09/29 12:35:59;;;;;;;2.35;0.50;;;;;;;12.49;63.09;91120.06;5009339;28;20024;-91
2021/09/29 12:38:35;;;;;;;1.77;0.50;;;;;;;12.35;64.06;91131.66;5005240;28;20052;-93
2021/09/29 12:41:00;;;;;;;3.63;0.70;;;;;;;12.23;63.34;91118.63;5021818;28;20441;-90
2021/09/29 12:43:27;;;;;;;2.78;0.75;;;;;;;12.21;64.01;91120.81;5003123;28;20028;-90
2021/09/29 12:45:52;;;;;;;5.97;0.57;;;;;;;12.31;64.01;91125.56;5008626;28;20019;-92
2021/09/29 12:48:20;;;;;;;3.60;0.80;;;;;;;12.24;65.01;91133.22;5015277;28;20033;-90
2021/09/29 12:50:51;;;;;;;4.25;0.80;;;;;;;12.17;65.61;91127.78;5019235;28;20017;-90
2021/09/29 12:53:26;;;;;;;4.85;0.70;;;;;;;12.37;65.22;91128.72;5020243;28;20021;-90
2021/09/29 12:58:29;;;;;;;2.88;0.73;;;;;;;12.41;65.33;91138.16;5039880;28;20127;-91
2021/09/29 13:00:58;;;;;;;8.57;0.90;;;;;;;12.23;66.10;91139.53;5020109;28;20501;-91
2021/09/29 13:03:24;;;;;;;1.75;0.65;;;;;;;12.37;66.12;91150.38;5036357;28;20517;-91
2021/09/29 13:05:49;;;;;;;4.63;0.77;;;;;;;12.42;67.90;91149.38;5003045;28;20029;-92
2021/09/29 13:08:15;;;;;;;3.75;0.70;;;;;;;12.59;66.17;91148.31;5019974;28;20474;-92
2021/09/29 13:10:41;;;;;;;4.30;0.80;;;;;;;12.51;65.54;91155.22;5019157;28;20024;-91
2021/09/29 13:13:07;;;;;;;4.47;0.77;;;;;;;12.40;65.50;91149.72;5003479;28;20033;-90
2021/09/29 13:15:32;;;;;;;3.03;0.63;;;;;;;12.44;66.05;91155.78;5003427;28;20028;-91
2021/09/29 13:17:58;;;;;;;2.42;0.63;;;;;;;12.46;65.18;91165.16;5028810;28;20029;-92
2021/09/29 13:20:27;;;;;;;7.25;0.80;;;;;;;12.41;65.29;91156.47;5028669;28;20021;-90
2021/09/29 13:22:57;;;;;;;3.22;0.80;;;;;;;12.34;65.32;91166.72;5030213;28;20025;-92
2021/09/29 13:38:45;;;;;;;4.13;0.60;;;;;;;11.52;72.85;91197.47;5012329;28;20092;-91
2021/09/29 13:41:10;;;;;;;3.35;0.60;;;;;;;11.67;72.99;91199.47;4995585;28;20022;-91
2021/09/29 13:43:35;;;;;;;3.60;0.77;;;;;;;11.75;74.55;91198.56;4979190;28;20030;-90
2021/09/29 13:46:01;;;;;;;1.60;0.57;;;;;;;11.64;77.13;91210.53;5029144;28;20044;-91
2021/09/29 13:48:27;;;;;;;10.57;1.00;;;;;;;11.32;73.49;91205.09;5018848;28;20040;-91
2021/09/29 13:50:52;;;;;;;0.90;0.40;;;;;;;11.08;75.21;91202.44;5002702;28;20017;-91
2021/09/29 13:53:17;;;;;;;4.97;0.52;;;;;;;11.13;74.96;91204.84;5002360;28;20017;-92
2021/09/29 13:55:45;;;;;;;1.73;0.52;;;;;;;11.09;77.32;91207.31;5001831;28;20029;-90
2021/09/29 13:58:33;;;;;;;2.60;0.60;;;;;;;10.98;77.51;91219.25;5002453;28;20025;-91
2021/09/29 14:30:49;;;;;;;1.92;0.32;;;;;;;9.73;81.63;91248.66;5023186;28;20124;-91
2021/09/29 14:33:49;;;;;;;2.08;0.30;;;;;;;9.58;81.00;91255.94;4990535;28;20025;-91
2021/09/29 14:36:07;;;;;;;0.90;0.20;;;;;;;9.69;80.77;91250.38;5003719;28;20025;-90
2021/09/29 14:38:32;;;;;;;1.73;0.30;;;;;;;9.77;81.69;91255.53;4998930;28;20048;-91
2021/09/29 14:40:58;;;;;;;1.35;0.30;;;;;;;9.86;82.27;91250.28;4998127;28;20547;-90
2021/09/29 14:43:23;;;;;;;0.30;0.20;;;;;;;9.86;80.67;91252.91;4997897;28;20029;-89
2021/09/29 14:45:48;;;;;;;0.30;0.20;;;;;;;9.83;79.52;91258.72;4997831;28;20402;-91
2021/09/29 14:48:14;;;;;;;0.68;0.30;;;;;;;9.96;79.51;91255.13;4998304;28;20419;-91